Time;durP1;ratioP1;P1;durP2;ratioP2;P2;SDS_P1;SDS_P2;PMS_P1;PMS_P2;Temp;Humidity;BMP_temperature;BMP_pressure;BME280_temperature;BME280_humidity;BME280_pressure;Samples;Min_cycle;Max_cycle;Signal;HPM_P1;HPM_P2
2023/07/16 00:00:12;;;;;;;1.80;1.70;;;23.10;93.40;;;;;;873954;162;27509;-71
2023/07/16 00:02:39;;;;;;;1.90;1.77;;;23.10;93.60;;;;;;874427;161;27506;-72
2023/07/16 00:05:06;;;;;;;1.80;1.70;;;23.10;93.70;;;;;;874005;162;27501;-72
2023/07/16 00:07:32;;;;;;;2.15;1.98;;;23.00;93.80;;;;;;874185;160;27454;-72
2023/07/16 00:09:58;;;;;;;1.62;1.40;;;23.00;94.00;;;;;;872738;163;27864;-72
2023/07/16 00:12:25;;;;;;;1.70;1.57;;;23.00;94.20;;;;;;872953;162;27468;-72
2023/07/16 00:14:51;;;;;;;2.00;1.65;;;23.00;94.50;;;;;;871677;161;27444;-72
2023/07/16 00:17:18;;;;;;;2.58;2.37;;;23.00;94.70;;;;;;871702;162;27536;-72
2023/07/16 00:19:45;;;;;;;2.02;1.92;;;23.00;94.80;;;;;;871149;161;27451;-72
2023/07/16 00:22:11;;;;;;;2.35;1.55;;;22.90;95.00;;;;;;871321;162;27514;-72
2023/07/16 00:24:38;;;;;;;1.60;1.50;;;22.90;95.30;;;;;;871393;163;27522;-72
2023/07/16 00:27:04;;;;;;;1.90;1.80;;;22.90;95.50;;;;;;871155;162;27435;-72
2023/07/16 00:29:31;;;;;;;2.47;1.80;;;22.90;95.70;;;;;;871005;161;27532;-72
2023/07/16 00:31:58;;;;;;;3.22;1.70;;;22.90;95.70;;;;;;871074;162;27459;-72
2023/07/16 00:34:24;;;;;;;3.65;2.00;;;22.90;95.90;;;;;;871886;161;27565;-72
2023/07/16 00:36:51;;;;;;;1.60;1.50;;;22.90;96.00;;;;;;870815;161;27435;-72
2023/07/16 00:39:17;;;;;;;1.85;1.75;;;22.80;96.00;;;;;;871797;161;27456;-72
2023/07/16 00:41:44;;;;;;;2.70;1.82;;;22.80;96.20;;;;;;868598;160;27455;-72
2023/07/16 00:44:11;;;;;;;2.12;1.77;;;22.80;96.20;;;;;;872214;161;27422;-72
2023/07/16 00:46:37;;;;;;;2.08;1.95;;;22.80;96.40;;;;;;875984;160;27957;-72
2023/07/16 00:49:04;;;;;;;2.08;1.98;;;22.80;96.50;;;;;;871875;161;27448;-72
2023/07/16 00:51:30;;;;;;;2.75;1.60;;;22.80;96.50;;;;;;870510;161;27541;-72
2023/07/16 00:53:57;;;;;;;1.82;1.72;;;22.70;96.50;;;;;;871000;161;27594;-72
2023/07/16 00:56:24;;;;;;;1.80;1.70;;;22.70;96.60;;;;;;872234;161;27464;-72
2023/07/16 00:58:50;;;;;;;1.47;1.47;;;22.70;96.60;;;;;;870985;161;27446;-72
2023/07/16 01:01:17;;;;;;;1.45;1.35;;;22.70;96.40;;;;;;871982;161;27444;-71
2023/07/16 01:03:43;;;;;;;1.42;1.30;;;22.70;96.10;;;;;;872032;161;27528;-72
2023/07/16 01:06:22;;;;;;;1.60;1.50;;;22.60;96.00;;;;;;871285;161;27518;-72
2023/07/16 01:08:55;;;;;;;1.42;1.32;;;22.60;96.00;;;;;;869716;161;27544;-71
2023/07/16 01:11:21;;;;;;;3.77;1.37;;;22.60;95.90;;;;;;871951;161;27411;-72
2023/07/16 01:13:48;;;;;;;1.17;1.17;;;22.60;96.20;;;;;;874089;161;27499;-71
2023/07/16 01:16:20;;;;;;;2.40;1.60;;;22.60;95.90;;;;;;885695;158;27546;-72
2023/07/16 01:18:47;;;;;;;1.85;1.52;;;22.50;95.80;;;;;;880808;159;27435;-72
2023/07/16 01:21:14;;;;;;;2.27;1.35;;;22.50;95.70;;;;;;881721;159;27404;-72
2023/07/16 01:23:52;;;;;;;1.85;1.35;;;22.50;95.80;;;;;;878612;161;28100;-72
2023/07/16 01:26:34;;;;;;;2.50;1.40;;;22.50;95.90;;;;;;878342;161;27439;-72
2023/07/16 01:29:15;;;;;;;1.47;1.37;;;22.40;95.90;;;;;;878298;160;27418;-71
2023/07/16 01:31:42;;;;;;;1.45;1.35;;;22.40;95.80;;;;;;876658;161;27779;-72
2023/07/16 01:34:08;;;;;;;1.70;1.30;;;22.40;95.80;;;;;;879077;160;27588;-72
2023/07/16 01:36:35;;;;;;;1.57;1.35;;;22.40;96.00;;;;;;877503;161;27469;-71
2023/07/16 01:39:02;;;;;;;1.50;1.32;;;22.30;96.10;;;;;;876797;160;27437;-72
2023/07/16 01:41:28;;;;;;;1.40;1.30;;;22.30;96.10;;;;;;877598;161;27421;-72
2023/07/16 01:43:55;;;;;;;1.42;1.32;;;22.30;96.10;;;;;;878267;160;27442;-71
2023/07/16 01:46:21;;;;;;;1.95;1.50;;;22.30;96.10;;;;;;878162;161;27560;-71
2023/07/16 01:48:48;;;;;;;1.42;1.32;;;22.30;96.20;;;;;;876775;160;27438;-71
2023/07/16 01:51:14;;;;;;;1.25;1.20;;;22.20;96.20;;;;;;878555;160;27485;-71
2023/07/16 01:53:41;;;;;;;1.82;1.37;;;22.20;96.20;;;;;;878382;160;27497;-72
2023/07/16 01:56:08;;;;;;;2.52;1.42;;;22.20;96.10;;;;;;878899;161;27454;-71
2023/07/16 01:58:34;;;;;;;1.35;1.25;;;22.20;96.10;;;;;;878697;160;27410;-72
2023/07/16 02:01:01;;;;;;;2.02;1.57;;;22.10;95.90;;;;;;878308;161;27435;-72
2023/07/16 02:03:27;;;;;;;1.50;1.40;;;22.10;95.90;;;;;;878848;161;27430;-73
2023/07/16 02:05:54;;;;;;;1.92;1.40;;;22.10;95.80;;;;;;878339;161;27585;-72
2023/07/16 02:08:21;;;;;;;1.95;1.57;;;22.00;95.90;;;;;;878149;160;28044;-71
2023/07/16 02:10:50;;;;;;;1.50;1.40;;;22.00;95.70;;;;;;878451;161;27419;-71
2023/07/16 02:13:17;;;;;;;1.85;1.60;;;22.00;95.70;;;;;;878238;161;27423;-71
2023/07/16 02:15:43;;;;;;;1.52;1.42;;;22.00;95.70;;;;;;873214;160;27450;-72
2023/07/16 02:18:10;;;;;;;2.00;1.55;;;21.90;95.50;;;;;;873668;161;27450;-71
2023/07/16 02:20:36;;;;;;;1.05;1.05;;;21.90;95.50;;;;;;873992;162;27419;-71
2023/07/16 02:23:03;;;;;;;1.70;1.60;;;21.80;95.40;;;;;;873798;162;27983;-71
2023/07/16 02:25:29;;;;;;;1.55;1.42;;;21.80;95.20;;;;;;873759;160;27439;-75
2023/07/16 02:27:56;;;;;;;1.60;1.50;;;21.70;95.10;;;;;;873442;159;27439;-75
2023/07/16 02:30:23;;;;;;;1.32;1.20;;;21.70;95.10;;;;;;873808;160;27513;-76
2023/07/16 02:32:49;;;;;;;1.80;1.50;;;21.60;95.10;;;;;;872844;162;27418;-76
2023/07/16 02:35:16;;;;;;;1.98;1.52;;;21.50;95.20;;;;;;873789;162;27565;-76
2023/07/16 02:37:42;;;;;;;1.90;1.50;;;21.50;95.40;;;;;;873474;161;27447;-76
2023/07/16 02:40:09;;;;;;;1.22;1.12;;;21.40;95.50;;;;;;873495;160;27462;-76
2023/07/16 02:42:36;;;;;;;1.40;1.30;;;21.40;95.60;;;;;;873186;160;27515;-75
2023/07/16 02:45:02;;;;;;;2.02;1.45;;;21.40;95.80;;;;;;873516;162;27539;-76
2023/07/16 02:47:29;;;;;;;1.40;1.30;;;21.30;95.90;;;;;;873832;162;27463;-76
2023/07/16 02:49:55;;;;;;;1.67;1.57;;;21.20;95.70;;;;;;872698;160;27455;-76
2023/07/16 02:52:22;;;;;;;1.90;1.30;;;21.20;95.70;;;;;;873698;161;27419;-76
2023/07/16 02:54:49;;;;;;;1.52;1.42;;;21.10;95.90;;;;;;872936;161;27957;-76
2023/07/16 02:57:15;;;;;;;1.98;1.30;;;21.00;96.00;;;;;;873524;161;27454;-76
2023/07/16 02:59:42;;;;;;;1.47;1.37;;;21.00;96.10;;;;;;873135;161;27529;-76
2023/07/16 03:02:08;;;;;;;1.87;1.55;;;21.00;96.20;;;;;;873115;161;27404;-76
2023/07/16 03:04:35;;;;;;;1.50;1.40;;;20.90;96.40;;;;;;873902;160;27392;-76
2023/07/16 03:07:01;;;;;;;1.70;1.60;;;20.80;96.40;;;;;;872383;161;27502;-76
2023/07/16 03:09:28;;;;;;;2.37;1.55;;;20.80;96.70;;;;;;872689;161;27443;-76
2023/07/16 03:11:55;;;;;;;3.72;1.60;;;20.80;96.80;;;;;;873294;162;28033;-76
2023/07/16 03:14:21;;;;;;;3.15;1.40;;;20.70;96.90;;;;;;874313;160;27453;-76
2023/07/16 03:16:48;;;;;;;4.85;1.82;;;20.70;97.00;;;;;;876575;161;27463;-76
2023/07/16 03:19:14;;;;;;;1.60;1.40;;;20.70;97.20;;;;;;847113;166;27946;-76
2023/07/16 03:21:41;;;;;;;2.08;1.55;;;20.60;97.20;;;;;;878441;161;27541;-76
2023/07/16 03:24:08;;;;;;;1.40;1.27;;;20.60;97.30;;;;;;874554;161;27776;-76
2023/07/16 03:26:34;;;;;;;1.80;1.70;;;20.60;97.30;;;;;;874149;160;27452;-76
2023/07/16 03:29:01;;;;;;;1.75;1.65;;;20.50;97.40;;;;;;874044;160;27985;-76
2023/07/16 03:31:27;;;;;;;1.60;1.47;;;20.50;97.40;;;;;;874550;161;27601;-76
2023/07/16 03:33:54;;;;;;;2.05;1.90;;;20.50;97.30;;;;;;874398;161;27586;-76
2023/07/16 03:36:21;;;;;;;2.15;2.00;;;20.40;97.60;;;;;;874731;161;27933;-76
2023/07/16 03:38:47;;;;;;;2.05;1.45;;;20.40;97.60;;;;;;874266;160;27411;-76
2023/07/16 03:41:14;;;;;;;2.52;1.27;;;20.40;97.60;;;;;;874620;161;27431;-76
2023/07/16 03:43:40;;;;;;;2.35;1.65;;;20.40;97.80;;;;;;874784;161;27446;-76
2023/07/16 03:46:08;;;;;;;1.67;1.57;;;20.30;97.90;;;;;;874454;161;27514;-76
2023/07/16 03:48:33;;;;;;;2.52;1.40;;;20.30;98.00;;;;;;874537;160;27443;-76
2023/07/16 03:51:00;;;;;;;1.42;1.32;;;20.30;98.00;;;;;;873656;160;27419;-76
2023/07/16 03:53:27;;;;;;;3.42;2.22;;;20.20;98.20;;;;;;874685;161;27478;-76
2023/07/16 03:55:53;;;;;;;3.12;1.42;;;20.20;98.30;;;;;;874095;160;27533;-76
2023/07/16 03:58:20;;;;;;;1.52;1.42;;;20.20;98.40;;;;;;874195;160;27964;-76
2023/07/16 04:00:46;;;;;;;1.70;1.27;;;20.20;98.50;;;;;;874158;161;27431;-76
2023/07/16 04:03:13;;;;;;;1.52;1.42;;;20.20;98.50;;;;;;873896;161;27539;-76
2023/07/16 04:05:40;;;;;;;3.12;1.85;;;20.20;98.60;;;;;;874706;162;27536;-76
2023/07/16 04:08:08;;;;;;;1.77;1.40;;;20.20;98.70;;;;;;874172;161;27520;-76
2023/07/16 04:10:33;;;;;;;1.98;1.75;;;20.20;98.80;;;;;;874170;161;27505;-76
2023/07/16 04:12:59;;;;;;;1.98;1.65;;;20.20;98.70;;;;;;874249;161;27554;-76
2023/07/16 04:15:26;;;;;;;4.78;2.45;;;20.20;98.60;;;;;;874574;161;27494;-76
2023/07/16 04:17:53;;;;;;;3.00;1.52;;;20.30;98.70;;;;;;873849;160;27979;-76
2023/07/16 04:20:19;;;;;;;1.60;1.45;;;20.30;98.60;;;;;;874564;160;27419;-76
2023/07/16 04:22:46;;;;;;;1.75;1.60;;;20.30;98.60;;;;;;874808;160;27433;-76
2023/07/16 04:25:13;;;;;;;1.65;1.52;;;20.40;98.60;;;;;;874073;161;27532;-76
2023/07/16 04:27:40;;;;;;;2.17;1.92;;;20.40;98.50;;;;;;874773;160;27443;-76
2023/07/16 04:30:06;;;;;;;3.83;1.40;;;20.40;98.40;;;;;;874717;160;27400;-76
2023/07/16 04:32:32;;;;;;;2.10;1.50;;;20.40;98.30;;;;;;875405;161;27450;-76
2023/07/16 04:34:59;;;;;;;3.25;1.70;;;20.50;98.30;;;;;;875066;160;27449;-76
2023/07/16 04:37:25;;;;;;;2.15;1.60;;;20.50;98.30;;;;;;874048;160;27501;-76
2023/07/16 04:39:52;;;;;;;2.67;1.50;;;20.60;98.20;;;;;;874334;160;27450;-76
2023/07/16 04:42:20;;;;;;;2.02;1.52;;;20.70;98.10;;;;;;874439;161;27451;-76
2023/07/16 04:44:45;;;;;;;3.35;1.47;;;20.70;97.90;;;;;;874402;162;27554;-76
2023/07/16 04:47:12;;;;;;;2.30;1.40;;;20.80;97.70;;;;;;874022;160;27423;-76
2023/07/16 04:49:38;;;;;;;2.00;1.47;;;20.80;97.50;;;;;;874330;160;27435;-76
2023/07/16 04:52:05;;;;;;;1.40;1.30;;;20.80;97.30;;;;;;874093;160;27586;-76
2023/07/16 04:54:35;;;;;;;2.15;1.72;;;20.90;97.20;;;;;;874015;160;27428;-76
2023/07/16 04:57:01;;;;;;;1.62;1.50;;;20.90;97.30;;;;;;873780;161;27512;-76
2023/07/16 04:59:28;;;;;;;1.67;1.57;;;21.00;96.90;;;;;;874658;160;27435;-76
2023/07/16 05:01:55;;;;;;;3.85;1.95;;;21.10;96.90;;;;;;874282;161;27439;-76
2023/07/16 05:04:21;;;;;;;2.55;1.80;;;21.20;97.10;;;;;;874316;161;27543;-76
2023/07/16 05:06:48;;;;;;;2.10;1.30;;;21.30;98.00;;;;;;874715;160;27515;-76
2023/07/16 05:09:14;;;;;;;2.85;1.50;;;21.50;98.60;;;;;;874658;160;27775;-76
2023/07/16 05:11:41;;;;;;;1.57;1.37;;;21.80;99.50;;;;;;874409;160;27456;-76
2023/07/16 05:14:07;;;;;;;3.08;1.47;;;22.10;99.90;;;;;;873931;160;27567;-76
2023/07/16 05:16:34;;;;;;;2.85;1.22;;;22.60;99.90;;;;;;875930;160;27404;-76
2023/07/16 05:19:01;;;;;;;3.80;1.32;;;23.20;99.90;;;;;;875206;160;27431;-76
2023/07/16 05:21:27;;;;;;;1.60;1.50;;;23.80;99.00;;;;;;871698;163;27476;-76
2023/07/16 05:23:54;;;;;;;1.72;1.30;;;24.40;97.90;;;;;;871506;161;27793;-76
2023/07/16 05:26:20;;;;;;;3.50;1.98;;;25.10;96.30;;;;;;871926;162;27488;-76
2023/07/16 05:28:47;;;;;;;2.70;1.67;;;25.70;94.20;;;;;;871605;161;27413;-76
2023/07/16 05:31:14;;;;;;;4.62;1.90;;;26.30;91.90;;;;;;871398;161;27428;-76
2023/07/16 05:33:40;;;;;;;4.30;1.57;;;26.90;89.80;;;;;;871554;163;27837;-77
2023/07/16 05:36:07;;;;;;;3.58;1.55;;;27.50;87.10;;;;;;870981;161;27922;-76
2023/07/16 05:38:33;;;;;;;1.57;1.42;;;28.00;84.70;;;;;;871459;161;27507;-77
2023/07/16 05:41:00;;;;;;;2.33;1.32;;;28.60;80.80;;;;;;871657;161;27393;-76
2023/07/16 05:43:27;;;;;;;2.67;1.50;;;29.20;78.20;;;;;;871372;161;27398;-77
2023/07/16 05:45:53;;;;;;;1.57;1.40;;;29.70;76.10;;;;;;871210;164;27464;-77
2023/07/16 05:48:20;;;;;;;2.52;1.50;;;30.20;73.90;;;;;;871395;161;27404;-77
2023/07/16 05:50:46;;;;;;;1.37;1.27;;;30.70;71.70;;;;;;871480;161;27495;-77
2023/07/16 05:53:16;;;;;;;1.35;1.20;;;31.20;70.00;;;;;;871686;161;27453;-77
2023/07/16 05:55:42;;;;;;;2.27;1.57;;;31.60;68.20;;;;;;871044;161;27573;-77
2023/07/16 05:58:09;;;;;;;2.05;1.30;;;32.00;66.40;;;;;;871191;163;27386;-77
2023/07/16 06:00:36;;;;;;;4.62;1.55;;;32.30;64.60;;;;;;870554;161;27526;-77
2023/07/16 06:03:05;;;;;;;1.92;1.30;;;32.70;63.20;;;;;;870441;161;27460;-77
2023/07/16 06:05:34;;;;;;;1.25;0.95;;;33.00;61.90;;;;;;871195;161;27481;-77
2023/07/16 06:07:58;;;;;;;1.80;1.05;;;33.20;60.10;;;;;;871693;161;27443;-76
2023/07/16 06:10:25;;;;;;;2.10;1.10;;;33.50;59.70;;;;;;870620;161;27414;-77
2023/07/16 06:12:51;;;;;;;3.12;1.52;;;33.70;58.90;;;;;;871500;161;27433;-77
2023/07/16 06:15:18;;;;;;;1.55;1.45;;;34.00;57.30;;;;;;871571;162;26450;-77
2023/07/16 06:17:45;;;;;;;2.00;1.35;;;34.20;57.40;;;;;;872524;161;27598;-76
2023/07/16 06:20:11;;;;;;;1.77;1.32;;;34.40;56.50;;;;;;872943;161;26338;-76
2023/07/16 06:22:38;;;;;;;2.50;1.70;;;34.60;56.10;;;;;;873622;161;27538;-76
2023/07/16 06:25:04;;;;;;;2.67;1.40;;;34.90;55.50;;;;;;872618;161;26323;-76
2023/07/16 06:27:31;;;;;;;3.42;1.17;;;35.00;54.90;;;;;;872956;163;26382;-76
2023/07/16 06:29:57;;;;;;;1.55;1.22;;;35.20;54.40;;;;;;872573;161;27413;-76
2023/07/16 06:32:24;;;;;;;2.85;1.47;;;35.30;53.90;;;;;;873807;161;26433;-76
2023/07/16 06:34:51;;;;;;;1.85;1.27;;;35.50;53.50;;;;;;872659;162;26397;-76
2023/07/16 06:37:17;;;;;;;2.62;1.62;;;35.60;53.40;;;;;;873139;161;26439;-72
2023/07/16 06:39:44;;;;;;;2.42;1.30;;;35.90;52.90;;;;;;872501;161;26460;-75
2023/07/16 06:42:10;;;;;;;3.25;1.65;;;36.10;52.40;;;;;;872523;161;26338;-75
2023/07/16 06:44:37;;;;;;;2.50;1.35;;;36.30;51.60;;;;;;872703;161;26319;-75
2023/07/16 06:47:04;;;;;;;3.00;1.72;;;36.60;51.20;;;;;;873296;161;26810;-75
2023/07/16 06:49:31;;;;;;;3.77;1.20;;;36.80;51.40;;;;;;872337;161;26370;-75
2023/07/16 06:51:57;;;;;;;2.02;1.50;;;37.00;50.20;;;;;;873088;162;26375;-75
2023/07/16 06:54:23;;;;;;;3.50;1.60;;;37.20;49.70;;;;;;873170;160;26351;-75
2023/07/16 06:56:50;;;;;;;2.90;1.60;;;37.40;49.20;;;;;;872669;162;26334;-75
2023/07/16 06:59:17;;;;;;;1.72;1.42;;;37.60;48.80;;;;;;872368;161;26394;-75
2023/07/16 07:01:43;;;;;;;2.20;1.62;;;37.90;48.40;;;;;;873443;162;26433;-75
2023/07/16 07:04:10;;;;;;;2.12;1.30;;;38.10;48.00;;;;;;872823;162;26404;-75
2023/07/16 07:06:36;;;;;;;2.17;1.50;;;38.40;47.40;;;;;;872942;163;26326;-75
2023/07/16 07:09:03;;;;;;;1.60;1.30;;;38.60;47.00;;;;;;872474;161;26362;-75
2023/07/16 07:11:30;;;;;;;2.92;1.50;;;38.90;46.30;;;;;;872605;163;26350;-75
2023/07/16 07:13:57;;;;;;;2.92;1.67;;;39.10;45.90;;;;;;872084;161;26334;-75
2023/07/16 07:16:23;;;;;;;4.35;1.72;;;39.40;45.40;;;;;;872623;162;26338;-75
2023/07/16 07:18:49;;;;;;;2.20;1.82;;;39.60;44.70;;;;;;872290;161;26405;-76
2023/07/16 07:21:16;;;;;;;2.50;1.70;;;39.70;43.80;;;;;;873025;163;27921;-76
2023/07/16 07:23:42;;;;;;;4.03;1.90;;;39.90;43.20;;;;;;872444;161;26761;-76
2023/07/16 07:26:09;;;;;;;1.82;1.37;;;40.00;42.30;;;;;;871891;161;26319;-76
2023/07/16 07:28:36;;;;;;;2.20;1.40;;;40.00;42.50;;;;;;871166;161;26337;-76
2023/07/16 07:31:02;;;;;;;2.15;1.42;;;40.00;41.60;;;;;;872765;161;26425;-77
2023/07/16 07:33:29;;;;;;;3.85;1.90;;;40.00;41.10;;;;;;872485;161;26449;-76
2023/07/16 07:35:55;;;;;;;2.67;1.67;;;40.00;40.80;;;;;;872874;162;26435;-76
2023/07/16 07:38:22;;;;;;;3.42;1.57;;;39.80;40.50;;;;;;871759;161;26329;-77
2023/07/16 07:40:49;;;;;;;4.20;1.65;;;39.70;40.00;;;;;;872156;161;26353;-77
2023/07/16 07:43:15;;;;;;;3.83;1.62;;;39.50;39.50;;;;;;872272;161;26349;-77
2023/07/16 07:45:42;;;;;;;3.80;1.60;;;39.40;39.60;;;;;;872311;161;26343;-78
2023/07/16 07:48:08;;;;;;;4.97;1.70;;;39.20;39.40;;;;;;872006;161;26343;-77
2023/07/16 07:50:35;;;;;;;2.75;1.70;;;39.10;39.40;;;;;;871885;161;26845;-77
2023/07/16 07:53:02;;;;;;;2.95;2.08;;;38.90;40.20;;;;;;872842;163;26460;-77
2023/07/16 07:55:28;;;;;;;3.20;1.60;;;38.80;39.70;;;;;;871355;161;26476;-77
2023/07/16 07:57:55;;;;;;;2.27;1.57;;;38.90;39.80;;;;;;871732;161;28024;-77
2023/07/16 08:00:21;;;;;;;1.57;1.47;;;39.00;40.10;;;;;;872217;161;26350;-78
2023/07/16 08:02:48;;;;;;;2.20;1.50;;;39.20;39.80;;;;;;871793;161;26358;-77
2023/07/16 08:05:14;;;;;;;6.42;1.85;;;39.40;39.00;;;;;;870213;161;26451;-77
2023/07/16 08:07:41;;;;;;;2.10;1.55;;;39.50;38.40;;;;;;871236;162;26422;-77
2023/07/16 08:10:08;;;;;;;2.35;1.35;;;39.60;38.20;;;;;;872467;161;26383;-77
2023/07/16 08:12:34;;;;;;;2.65;1.70;;;39.60;38.10;;;;;;871768;161;26345;-77
2023/07/16 08:15:01;;;;;;;1.85;1.50;;;39.70;37.90;;;;;;872052;161;26350;-77
2023/07/16 08:17:27;;;;;;;3.50;1.62;;;39.70;37.90;;;;;;872225;162;26362;-77
2023/07/16 08:19:54;;;;;;;2.75;1.55;;;39.60;37.20;;;;;;872087;161;26399;-77
2023/07/16 08:22:21;;;;;;;2.75;1.50;;;39.50;36.60;;;;;;872989;161;26873;-76
2023/07/16 08:24:47;;;;;;;2.42;1.67;;;39.20;36.60;;;;;;872467;161;26366;-75
2023/07/16 08:27:14;;;;;;;4.20;1.98;;;38.90;36.40;;;;;;871973;161;26441;-75
2023/07/16 08:29:40;;;;;;;2.45;1.62;;;38.70;36.90;;;;;;872639;161;26324;-76
2023/07/16 08:32:07;;;;;;;2.50;1.87;;;38.50;37.10;;;;;;871966;161;26331;-75
2023/07/16 08:34:34;;;;;;;2.12;1.57;;;38.40;37.30;;;;;;872259;161;27813;-75
2023/07/16 08:37:00;;;;;;;1.90;1.70;;;38.30;37.20;;;;;;871906;161;26354;-75
2023/07/16 08:39:27;;;;;;;1.82;1.47;;;38.30;37.30;;;;;;872266;161;26456;-73
2023/07/16 08:41:53;;;;;;;3.30;1.65;;;38.30;36.80;;;;;;871817;161;26358;-73
2023/07/16 08:44:20;;;;;;;2.42;1.80;;;38.20;36.60;;;;;;872604;161;26330;-73
2023/07/16 08:46:47;;;;;;;2.60;1.70;;;38.10;36.30;;;;;;872544;161;26361;-73
2023/07/16 08:49:13;;;;;;;4.15;1.50;;;38.00;36.50;;;;;;871717;161;26448;-73
2023/07/16 08:51:40;;;;;;;3.55;1.47;;;37.90;36.40;;;;;;871189;161;26413;-73
2023/07/16 08:54:06;;;;;;;2.22;1.57;;;37.70;36.30;;;;;;872222;161;26325;-73
2023/07/16 08:56:33;;;;;;;2.22;1.70;;;37.50;36.10;;;;;;872652;161;26330;-73
2023/07/16 08:59:00;;;;;;;2.45;1.60;;;37.30;35.80;;;;;;872745;161;26353;-73
2023/07/16 09:01:26;;;;;;;2.52;1.72;;;37.00;36.00;;;;;;871721;161;26265;-73
2023/07/16 09:03:53;;;;;;;1.95;1.75;;;36.60;35.80;;;;;;872374;162;27433;-73
2023/07/16 09:06:19;;;;;;;3.42;2.00;;;36.30;36.10;;;;;;872380;161;26416;-73
2023/07/16 09:08:46;;;;;;;2.50;1.80;;;35.90;36.00;;;;;;872803;161;27566;-73
2023/07/16 09:11:20;;;;;;;2.27;1.52;;;35.60;36.00;;;;;;872517;161;26771;-72
2023/07/16 09:13:39;;;;;;;4.45;1.45;;;35.40;36.50;;;;;;872310;160;27453;-72
2023/07/16 09:16:06;;;;;;;2.98;1.80;;;35.30;37.00;;;;;;872332;163;26330;-72
2023/07/16 09:18:32;;;;;;;4.03;1.80;;;35.40;37.40;;;;;;872885;163;26481;-73
2023/07/16 09:21:01;;;;;;;3.85;1.87;;;35.60;37.60;;;;;;872897;161;26470;-73
2023/07/16 09:23:28;;;;;;;2.05;1.50;;;36.00;37.70;;;;;;872777;161;26335;-73
2023/07/16 09:25:52;;;;;;;2.37;1.77;;;36.40;37.80;;;;;;871181;161;26416;-73
2023/07/16 09:28:19;;;;;;;3.25;1.55;;;36.90;37.70;;;;;;872785;162;26318;-73
2023/07/16 09:30:45;;;;;;;2.42;1.55;;;37.40;37.50;;;;;;872604;161;26712;-73
2023/07/16 09:33:12;;;;;;;3.92;1.82;;;37.90;36.90;;;;;;872320;161;26432;-73
2023/07/16 09:35:38;;;;;;;3.10;1.60;;;38.40;36.70;;;;;;872053;161;26732;-73
2023/07/16 09:38:05;;;;;;;1.57;1.40;;;38.90;35.80;;;;;;872951;163;26330;-73
2023/07/16 09:40:32;;;;;;;3.08;1.52;;;39.30;35.00;;;;;;871591;162;26691;-73
2023/07/16 09:42:58;;;;;;;1.62;1.45;;;39.60;34.70;;;;;;871523;162;26362;-73
2023/07/16 09:45:25;;;;;;;3.25;1.50;;;39.80;34.10;;;;;;871879;161;26428;-73
2023/07/16 09:47:51;;;;;;;3.47;1.90;;;39.90;33.20;;;;;;872593;161;26354;-73
2023/07/16 09:50:18;;;;;;;2.77;1.57;;;39.80;32.40;;;;;;872174;161;26318;-73
2023/07/16 09:52:44;;;;;;;2.42;1.40;;;39.50;31.90;;;;;;873286;161;26444;-73
2023/07/16 09:55:11;;;;;;;4.05;1.52;;;39.10;31.90;;;;;;872354;163;27550;-73
2023/07/16 09:57:38;;;;;;;3.42;1.67;;;38.70;32.50;;;;;;871911;161;26341;-73
2023/07/16 10:00:04;;;;;;;2.20;1.30;;;38.40;32.90;;;;;;871357;159;26333;-73
2023/07/16 10:02:31;;;;;;;1.82;1.40;;;38.20;33.20;;;;;;872158;161;26397;-73
2023/07/16 10:04:58;;;;;;;3.42;1.60;;;38.10;33.70;;;;;;871123;161;26355;-73
2023/07/16 10:07:24;;;;;;;1.75;1.45;;;38.10;33.50;;;;;;872604;161;26354;-73
2023/07/16 10:09:57;;;;;;;3.45;1.77;;;38.00;33.50;;;;;;871916;160;26358;-73
2023/07/16 10:12:23;;;;;;;2.30;1.65;;;38.00;33.20;;;;;;871544;161;26416;-73
2023/07/16 10:14:50;;;;;;;2.60;1.40;;;37.80;32.90;;;;;;870502;161;26384;-73
2023/07/16 10:17:16;;;;;;;2.33;1.55;;;37.70;32.60;;;;;;870670;159;26454;-73
2023/07/16 10:20:00;;;;;;;1.80;1.50;;;37.40;32.50;;;;;;870312;161;26527;-73
2023/07/16 10:22:42;;;;;;;2.00;1.40;;;37.20;32.60;;;;;;840767;167;26499;-73
2023/07/16 10:25:11;;;;;;;3.55;1.90;;;36.90;32.90;;;;;;841612;166;27726;-73
2023/07/16 10:27:37;;;;;;;4.53;1.65;;;36.60;32.80;;;;;;869956;161;27553;-74
2023/07/16 10:30:04;;;;;;;4.47;1.70;;;36.30;32.30;;;;;;869895;160;27449;-73
2023/07/16 10:32:31;;;;;;;2.00;1.82;;;36.00;32.60;;;;;;871005;160;27444;-73
2023/07/16 10:34:57;;;;;;;1.65;1.45;;;35.70;32.70;;;;;;870057;159;27550;-73
2023/07/16 10:37:24;;;;;;;1.50;1.40;;;35.40;32.60;;;;;;871245;161;27436;-73
2023/07/16 10:39:50;;;;;;;2.65;1.75;;;35.00;32.50;;;;;;872490;161;27416;-73
2023/07/16 10:42:17;;;;;;;1.90;1.55;;;34.70;32.70;;;;;;871082;161;27503;-73
2023/07/16 10:44:43;;;;;;;4.87;1.42;;;34.30;33.00;;;;;;871729;161;27518;-73
2023/07/16 10:47:21;;;;;;;1.90;1.60;;;34.00;33.00;;;;;;871483;161;27528;-73
2023/07/16 10:49:46;;;;;;;2.15;1.72;;;33.70;33.40;;;;;;871380;161;27389;-73
2023/07/16 10:52:12;;;;;;;1.52;1.42;;;33.40;33.80;;;;;;872534;161;28084;-73
2023/07/16 10:54:39;;;;;;;1.60;1.50;;;33.20;33.80;;;;;;873262;161;27535;-73
2023/07/16 10:57:05;;;;;;;1.67;1.42;;;33.00;34.10;;;;;;873130;162;27416;-73
2023/07/16 10:59:32;;;;;;;2.50;1.47;;;32.90;34.30;;;;;;873080;161;27529;-73
2023/07/16 11:01:58;;;;;;;2.62;1.65;;;32.70;34.00;;;;;;872821;161;27417;-73
2023/07/16 11:04:25;;;;;;;2.72;1.37;;;32.60;33.80;;;;;;872485;161;27463;-73
2023/07/16 11:06:52;;;;;;;2.98;1.55;;;32.50;33.80;;;;;;872780;161;27493;-73
2023/07/16 11:09:18;;;;;;;3.70;1.40;;;32.30;34.10;;;;;;872831;161;27557;-73
2023/07/16 11:11:45;;;;;;;3.05;1.80;;;32.10;34.30;;;;;;873210;162;27427;-73
2023/07/16 11:14:11;;;;;;;1.60;1.50;;;32.00;34.30;;;;;;872059;161;26366;-73
2023/07/16 11:16:38;;;;;;;2.72;1.62;;;31.90;34.60;;;;;;871973;161;27526;-73
2023/07/16 11:19:05;;;;;;;3.17;1.60;;;31.80;34.70;;;;;;872367;161;27431;-73
2023/07/16 11:21:31;;;;;;;2.55;1.60;;;31.70;34.80;;;;;;872864;161;27463;-72
2023/07/16 11:23:58;;;;;;;1.87;1.40;;;31.70;34.90;;;;;;872162;163;27421;-73
2023/07/16 11:26:24;;;;;;;2.17;1.60;;;31.60;34.90;;;;;;871110;161;27452;-73
2023/07/16 11:28:51;;;;;;;1.67;1.55;;;31.50;35.10;;;;;;871257;161;27888;-73
2023/07/16 11:31:17;;;;;;;3.22;1.77;;;31.50;35.30;;;;;;872524;161;28064;-73
2023/07/16 11:33:47;;;;;;;2.17;1.80;;;31.40;35.30;;;;;;872293;161;27563;-73
2023/07/16 11:36:14;;;;;;;1.70;1.40;;;31.40;35.30;;;;;;872727;161;27468;-73
2023/07/16 11:38:40;;;;;;;1.90;1.65;;;31.30;35.20;;;;;;872661;161;27444;-73
2023/07/16 11:41:07;;;;;;;1.98;1.42;;;31.30;35.70;;;;;;871659;161;27590;-73
2023/07/16 11:43:36;;;;;;;4.12;1.72;;;31.30;35.10;;;;;;872323;161;27585;-73
2023/07/16 11:46:05;;;;;;;2.95;1.60;;;31.30;35.10;;;;;;871355;161;27547;-73
2023/07/16 11:48:32;;;;;;;1.50;1.32;;;31.20;35.20;;;;;;870873;161;27474;-72
2023/07/16 11:50:59;;;;;;;2.35;1.57;;;31.20;35.00;;;;;;871975;161;27420;-73
2023/07/16 11:53:26;;;;;;;1.70;1.60;;;31.10;35.10;;;;;;872974;161;27420;-72
2023/07/16 11:55:52;;;;;;;3.20;1.85;;;31.10;35.40;;;;;;872747;163;27471;-73
2023/07/16 11:58:18;;;;;;;1.60;1.50;;;31.10;35.60;;;;;;873087;161;27456;-73
2023/07/16 12:00:45;;;;;;;1.67;1.52;;;31.00;35.60;;;;;;872540;161;27415;-72
2023/07/16 12:03:12;;;;;;;2.67;1.47;;;31.00;35.50;;;;;;872701;161;27430;-73
2023/07/16 12:05:38;;;;;;;4.37;1.70;;;31.00;35.40;;;;;;871928;161;27558;-73
2023/07/16 12:08:05;;;;;;;3.27;1.80;;;31.00;35.30;;;;;;872507;162;27515;-72
2023/07/16 12:10:31;;;;;;;2.05;1.85;;;31.00;35.30;;;;;;871672;161;27412;-72
2023/07/16 12:12:58;;;;;;;2.40;1.32;;;30.90;35.20;;;;;;872596;161;27417;-72
2023/07/16 12:15:25;;;;;;;2.37;1.87;;;30.90;35.30;;;;;;872548;161;27917;-73
2023/07/16 12:17:51;;;;;;;3.62;1.77;;;30.90;35.30;;;;;;871992;161;27538;-73
2023/07/16 12:20:18;;;;;;;3.80;1.77;;;30.90;35.20;;;;;;871676;161;27540;-73
2023/07/16 12:22:44;;;;;;;1.87;1.50;;;30.90;35.00;;;;;;872417;161;27514;-73
2023/07/16 12:25:11;;;;;;;2.67;1.50;;;30.80;34.90;;;;;;872150;161;27407;-73
2023/07/16 12:27:37;;;;;;;1.70;1.52;;;30.80;34.90;;;;;;872219;161;27472;-73
2023/07/16 12:30:04;;;;;;;2.27;1.60;;;30.70;34.90;;;;;;871399;161;27447;-72
2023/07/16 12:32:55;;;;;;;3.72;1.65;;;30.60;35.00;;;;;;870553;162;27414;-73
2023/07/16 12:35:22;;;;;;;1.75;1.65;;;30.60;35.30;;;;;;869270;162;27475;-73
2023/07/16 12:37:48;;;;;;;3.47;1.80;;;30.50;35.30;;;;;;870139;162;27421;-73
2023/07/16 12:40:16;;;;;;;4.67;1.60;;;30.50;35.20;;;;;;865196;162;27580;-72
2023/07/16 12:42:41;;;;;;;2.30;1.82;;;30.40;35.40;;;;;;871437;161;28075;-73
2023/07/16 12:45:08;;;;;;;3.45;1.85;;;30.40;35.40;;;;;;872454;161;27568;-73